sensor_id;sensor_type;location;lat;lon;timestamp;P1;durP1;ratioP1;P2;durP2;ratioP2
64018;SDS011;66942;52.138;5.216;2024-02-26T00:02:31;4.3;;;4.0;;
64018;SDS011;66942;52.138;5.216;2024-02-26T00:04:07;4.41;;;4.0;;
64018;SDS011;66942;52.138;5.216;2024-02-26T00:05:44;4.91;;;4.5;;
64018;SDS011;66942;52.138;5.216;2024-02-26T00:08:57;4.8;;;4.5;;
64018;SDS011;66942;52.138;5.216;2024-02-26T00:10:34;5.11;;;4.7;;
64018;SDS011;66942;52.138;5.216;2024-02-26T00:12:10;4.61;;;4.3;;
64018;SDS011;66942;52.138;5.216;2024-02-26T00:15:25;5.4;;;5.0;;
64018;SDS011;66942;52.138;5.216;2024-02-26T00:17:01;5.2;;;4.8;;
64018;SDS011;66942;52.138;5.216;2024-02-26T00:18:38;5.2;;;4.91;;
64018;SDS011;66942;52.138;5.216;2024-02-26T00:20:15;5.6;;;5.2;;
64018;SDS011;66942;52.138;5.216;2024-02-26T00:23:27;5.6;;;5.2;;
64018;SDS011;66942;52.138;5.216;2024-02-26T00:25:04;5.7;;;5.4;;
64018;SDS011;66942;52.138;5.216;2024-02-26T00:26:41;6.0;;;5.7;;
64018;SDS011;66942;52.138;5.216;2024-02-26T00:29:56;6.1;;;5.7;;
64018;SDS011;66942;52.138;5.216;2024-02-26T00:31:32;6.2;;;5.8;;
64018;SDS011;66942;52.138;5.216;2024-02-26T00:33:09;5.8;;;5.4;;
64018;SDS011;66942;52.138;5.216;2024-02-26T00:34:46;6.5;;;5.9;;
64018;SDS011;66942;52.138;5.216;2024-02-26T00:37:58;6.6;;;6.2;;
64018;SDS011;66942;52.138;5.216;2024-02-26T00:39:35;5.9;;;5.5;;
64018;SDS011;66942;52.138;5.216;2024-02-26T00:41:11;6.7;;;6.3;;
64018;SDS011;66942;52.138;5.216;2024-02-26T00:44:23;6.1;;;5.7;;
64018;SDS011;66942;52.138;5.216;2024-02-26T00:46:00;7.2;;;6.7;;
64018;SDS011;66942;52.138;5.216;2024-02-26T00:47:36;7.2;;;6.5;;
64018;SDS011;66942;52.138;5.216;2024-02-26T00:50:48;6.8;;;6.4;;
64018;SDS011;66942;52.138;5.216;2024-02-26T00:52:25;6.2;;;5.9;;
64018;SDS011;66942;52.138;5.216;2024-02-26T00:54:01;6.4;;;6.0;;
64018;SDS011;66942;52.138;5.216;2024-02-26T00:57:14;6.7;;;6.3;;
64018;SDS011;66942;52.138;5.216;2024-02-26T00:58:50;6.9;;;6.4;;
64018;SDS011;66942;52.138;5.216;2024-02-26T01:00:26;7.2;;;6.8;;
64018;SDS011;66942;52.138;5.216;2024-02-26T01:02:02;6.7;;;6.3;;
64018;SDS011;66942;52.138;5.216;2024-02-26T01:05:14;6.9;;;6.4;;
64018;SDS011;66942;52.138;5.216;2024-02-26T01:06:50;6.7;;;6.3;;
64018;SDS011;66942;52.138;5.216;2024-02-26T01:08:26;6.9;;;6.4;;
64018;SDS011;66942;52.138;5.216;2024-02-26T01:11:45;6.9;;;6.4;;
64018;SDS011;66942;52.138;5.216;2024-02-26T01:13:21;6.2;;;5.9;;
64018;SDS011;66942;52.138;5.216;2024-02-26T01:14:57;7.3;;;6.9;;
64018;SDS011;66942;52.138;5.216;2024-02-26T01:18:09;7.1;;;6.7;;
64018;SDS011;66942;52.138;5.216;2024-02-26T01:19:46;7.0;;;6.6;;
64018;SDS011;66942;52.138;5.216;2024-02-26T01:21:23;7.1;;;6.7;;
64018;SDS011;66942;52.138;5.216;2024-02-26T01:23:00;7.8;;;7.3;;
64018;SDS011;66942;52.138;5.216;2024-02-26T01:26:13;7.2;;;6.8;;
64018;SDS011;66942;52.138;5.216;2024-02-26T01:27:49;7.5;;;7.1;;
64018;SDS011;66942;52.138;5.216;2024-02-26T01:29:26;7.1;;;6.7;;
64018;SDS011;66942;52.138;5.216;2024-02-26T01:32:39;7.6;;;7.1;;
64018;SDS011;66942;52.138;5.216;2024-02-26T01:34:15;7.0;;;6.6;;
64018;SDS011;66942;52.138;5.216;2024-02-26T01:35:52;7.3;;;6.9;;
64018;SDS011;66942;52.138;5.216;2024-02-26T01:39:04;7.2;;;6.7;;
64018;SDS011;66942;52.138;5.216;2024-02-26T01:40:41;7.3;;;6.9;;
64018;SDS011;66942;52.138;5.216;2024-02-26T01:42:17;6.9;;;6.5;;
64018;SDS011;66942;52.138;5.216;2024-02-26T01:43:56;7.3;;;6.8;;
64018;SDS011;66942;52.138;5.216;2024-02-26T01:47:10;7.3;;;6.9;;
64018;SDS011;66942;52.138;5.216;2024-02-26T01:48:47;7.5;;;7.1;;
64018;SDS011;66942;52.138;5.216;2024-02-26T01:50:24;7.9;;;7.4;;
64018;SDS011;66942;52.138;5.216;2024-02-26T01:53:39;8.2;;;7.7;;
64018;SDS011;66942;52.138;5.216;2024-02-26T01:55:17;7.9;;;7.5;;
64018;SDS011;66942;52.138;5.216;2024-02-26T01:56:53;7.8;;;7.3;;
64018;SDS011;66942;52.138;5.216;2024-02-26T01:58:31;7.5;;;7.1;;
64018;SDS011;66942;52.138;5.216;2024-02-26T02:01:47;8.6;;;8.1;;
64018;SDS011;66942;52.138;5.216;2024-02-26T02:03:31;9.31;;;8.71;;
64018;SDS011;66942;52.138;5.216;2024-02-26T02:05:07;8.6;;;8.2;;
64018;SDS011;66942;52.138;5.216;2024-02-26T02:08:21;8.1;;;7.7;;
64018;SDS011;66942;52.138;5.216;2024-02-26T02:09:59;8.71;;;8.2;;
64018;SDS011;66942;52.138;5.216;2024-02-26T02:11:36;8.4;;;8.0;;
64018;SDS011;66942;52.138;5.216;2024-02-26T02:13:13;8.5;;;8.0;;
64018;SDS011;66942;52.138;5.216;2024-02-26T02:16:25;8.71;;;8.2;;
64018;SDS011;66942;52.138;5.216;2024-02-26T02:18:01;8.71;;;8.2;;
64018;SDS011;66942;52.138;5.216;2024-02-26T02:19:37;9.5;;;9.0;;
64018;SDS011;66942;52.138;5.216;2024-02-26T02:22:49;9.6;;;9.0;;
64018;SDS011;66942;52.138;5.216;2024-02-26T02:24:25;9.9;;;9.4;;
64018;SDS011;66942;52.138;5.216;2024-02-26T02:26:03;9.71;;;9.21;;
64018;SDS011;66942;52.138;5.216;2024-02-26T02:29:16;9.6;;;9.0;;
64018;SDS011;66942;52.138;5.216;2024-02-26T02:30:52;10.7;;;10.0;;
64018;SDS011;66942;52.138;5.216;2024-02-26T02:32:29;10.7;;;10.1;;
64018;SDS011;66942;52.138;5.216;2024-02-26T02:34:06;10.8;;;10.1;;
64018;SDS011;66942;52.138;5.216;2024-02-26T02:37:20;10.6;;;10.0;;
64018;SDS011;66942;52.138;5.216;2024-02-26T02:38:57;10.9;;;10.21;;
64018;SDS011;66942;52.138;5.216;2024-02-26T02:40:33;11.0;;;10.4;;
64018;SDS011;66942;52.138;5.216;2024-02-26T02:43:47;11.1;;;10.4;;
64018;SDS011;66942;52.138;5.216;2024-02-26T02:45:23;11.8;;;11.0;;
64018;SDS011;66942;52.138;5.216;2024-02-26T02:46:59;11.7;;;10.9;;
64018;SDS011;66942;52.138;5.216;2024-02-26T02:50:11;12.3;;;11.5;;
64018;SDS011;66942;52.138;5.216;2024-02-26T02:51:51;12.1;;;11.4;;
64018;SDS011;66942;52.138;5.216;2024-02-26T02:53:28;12.4;;;11.6;;
64018;SDS011;66942;52.138;5.216;2024-02-26T02:55:04;12.2;;;11.6;;
64018;SDS011;66942;52.138;5.216;2024-02-26T02:58:17;12.7;;;11.9;;
64018;SDS011;66942;52.138;5.216;2024-02-26T02:59:54;13.3;;;12.5;;
64018;SDS011;66942;52.138;5.216;2024-02-26T03:01:30;13.8;;;13.0;;
64018;SDS011;66942;52.138;5.216;2024-02-26T03:04:42;12.8;;;12.0;;
64018;SDS011;66942;52.138;5.216;2024-02-26T03:06:18;12.9;;;12.1;;
64018;SDS011;66942;52.138;5.216;2024-02-26T03:07:54;13.1;;;12.2;;
64018;SDS011;66942;52.138;5.216;2024-02-26T03:11:06;12.6;;;11.9;;
64018;SDS011;66942;52.138;5.216;2024-02-26T03:12:42;13.1;;;12.2;;
64018;SDS011;66942;52.138;5.216;2024-02-26T03:14:18;12.8;;;12.0;;
64018;SDS011;66942;52.138;5.216;2024-02-26T03:15:54;12.6;;;11.9;;
64018;SDS011;66942;52.138;5.216;2024-02-26T03:19:07;13.8;;;13.0;;
64018;SDS011;66942;52.138;5.216;2024-02-26T03:20:43;12.7;;;12.0;;
64018;SDS011;66942;52.138;5.216;2024-02-26T03:22:19;13.3;;;12.5;;
64018;SDS011;66942;52.138;5.216;2024-02-26T03:25:31;12.8;;;12.0;;
64018;SDS011;66942;52.138;5.216;2024-02-26T03:27:07;13.5;;;12.7;;
64018;SDS011;66942;52.138;5.216;2024-02-26T03:28:44;14.6;;;13.7;;
64018;SDS011;66942;52.138;5.216;2024-02-26T03:31:57;14.3;;;13.4;;
64018;SDS011;66942;52.138;5.216;2024-02-26T03:33:34;13.5;;;12.7;;
64018;SDS011;66942;52.138;5.216;2024-02-26T03:35:11;14.4;;;13.5;;
64018;SDS011;66942;52.138;5.216;2024-02-26T03:36:47;14.7;;;13.8;;
64018;SDS011;66942;52.138;5.216;2024-02-26T03:40:00;14.6;;;13.8;;
64018;SDS011;66942;52.138;5.216;2024-02-26T03:41:36;14.8;;;13.9;;
64018;SDS011;66942;52.138;5.216;2024-02-26T03:43:12;14.1;;;13.3;;
64018;SDS011;66942;52.138;5.216;2024-02-26T03:46:24;14.6;;;13.7;;
64018;SDS011;66942;52.138;5.216;2024-02-26T03:48:01;14.6;;;13.6;;
64018;SDS011;66942;52.138;5.216;2024-02-26T03:49:37;14.4;;;13.5;;
64018;SDS011;66942;52.138;5.216;2024-02-26T03:52:51;14.2;;;13.4;;
64018;SDS011;66942;52.138;5.216;2024-02-26T03:54:28;15.0;;;14.1;;
64018;SDS011;66942;52.138;5.216;2024-02-26T03:56:04;15.1;;;14.1;;
64018;SDS011;66942;52.138;5.216;2024-02-26T03:57:42;15.0;;;14.1;;
64018;SDS011;66942;52.138;5.216;2024-02-26T04:00:55;15.2;;;14.4;;
64018;SDS011;66942;52.138;5.216;2024-02-26T04:02:31;14.9;;;14.0;;
64018;SDS011;66942;52.138;5.216;2024-02-26T04:04:07;15.1;;;14.0;;
64018;SDS011;66942;52.138;5.216;2024-02-26T04:07:21;15.8;;;14.7;;
64018;SDS011;66942;52.138;5.216;2024-02-26T04:08:57;15.2;;;14.2;;
64018;SDS011;66942;52.138;5.216;2024-02-26T04:10:33;15.4;;;14.4;;
64018;SDS011;66942;52.138;5.216;2024-02-26T04:13:45;16.3;;;15.2;;
64018;SDS011;66942;52.138;5.216;2024-02-26T04:15:22;15.5;;;14.5;;
64018;SDS011;66942;52.138;5.216;2024-02-26T04:16:58;15.3;;;14.3;;
64018;SDS011;66942;52.138;5.216;2024-02-26T04:20:13;16.4;;;15.4;;
64018;SDS011;66942;52.138;5.216;2024-02-26T04:21:51;15.8;;;14.8;;
64018;SDS011;66942;52.138;5.216;2024-02-26T04:23:27;16.5;;;15.4;;
64018;SDS011;66942;52.138;5.216;2024-02-26T04:25:04;16.7;;;15.6;;
64018;SDS011;66942;52.138;5.216;2024-02-26T04:28:17;16.8;;;15.7;;
64018;SDS011;66942;52.138;5.216;2024-02-26T04:29:53;16.5;;;15.5;;
64018;SDS011;66942;52.138;5.216;2024-02-26T04:31:29;17.41;;;16.2;;
64018;SDS011;66942;52.138;5.216;2024-02-26T04:34:42;18.61;;;17.3;;
64018;SDS011;66942;52.138;5.216;2024-02-26T04:36:18;17.41;;;16.3;;
64018;SDS011;66942;52.138;5.216;2024-02-26T04:37:55;17.41;;;16.3;;
64018;SDS011;66942;52.138;5.216;2024-02-26T04:41:08;17.7;;;16.4;;
64018;SDS011;66942;52.138;5.216;2024-02-26T04:42:45;18.5;;;17.11;;
64018;SDS011;66942;52.138;5.216;2024-02-26T04:44:22;19.5;;;18.0;;
64018;SDS011;66942;52.138;5.216;2024-02-26T04:45:59;19.3;;;17.91;;
64018;SDS011;66942;52.138;5.216;2024-02-26T04:49:11;18.91;;;17.61;;
64018;SDS011;66942;52.138;5.216;2024-02-26T04:50:47;20.9;;;19.5;;
64018;SDS011;66942;52.138;5.216;2024-02-26T04:52:23;19.8;;;18.41;;
64018;SDS011;66942;52.138;5.216;2024-02-26T04:55:36;20.41;;;19.0;;
64018;SDS011;66942;52.138;5.216;2024-02-26T04:57:12;20.3;;;18.8;;
64018;SDS011;66942;52.138;5.216;2024-02-26T04:58:48;20.7;;;19.3;;
64018;SDS011;66942;52.138;5.216;2024-02-26T05:02:02;20.8;;;19.41;;
64018;SDS011;66942;52.138;5.216;2024-02-26T05:03:39;20.2;;;18.8;;
64018;SDS011;66942;52.138;5.216;2024-02-26T05:05:15;20.9;;;19.2;;
64018;SDS011;66942;52.138;5.216;2024-02-26T05:06:52;19.41;;;18.2;;
64018;SDS011;66942;52.138;5.216;2024-02-26T05:10:07;21.0;;;19.61;;
64018;SDS011;66942;52.138;5.216;2024-02-26T05:11:44;21.2;;;19.7;;
64018;SDS011;66942;52.138;5.216;2024-02-26T05:13:20;20.41;;;18.91;;
64018;SDS011;66942;52.138;5.216;2024-02-26T05:16:35;20.2;;;18.8;;
64018;SDS011;66942;52.138;5.216;2024-02-26T05:18:11;20.5;;;19.11;;
64018;SDS011;66942;52.138;5.216;2024-02-26T05:19:47;20.3;;;18.8;;
64018;SDS011;66942;52.138;5.216;2024-02-26T05:21:23;19.61;;;18.11;;
64018;SDS011;66942;52.138;5.216;2024-02-26T05:24:37;20.11;;;18.7;;
64018;SDS011;66942;52.138;5.216;2024-02-26T05:26:18;19.7;;;18.3;;
64018;SDS011;66942;52.138;5.216;2024-02-26T05:27:55;19.11;;;17.8;;
64018;SDS011;66942;52.138;5.216;2024-02-26T05:31:08;18.5;;;17.11;;
64018;SDS011;66942;52.138;5.216;2024-02-26T05:32:48;19.61;;;18.2;;
64018;SDS011;66942;52.138;5.216;2024-02-26T05:34:24;19.8;;;18.41;;
64018;SDS011;66942;52.138;5.216;2024-02-26T05:37:37;19.3;;;17.91;;
64018;SDS011;66942;52.138;5.216;2024-02-26T05:39:14;19.7;;;18.41;;
64018;SDS011;66942;52.138;5.216;2024-02-26T05:40:50;19.61;;;18.3;;
64018;SDS011;66942;52.138;5.216;2024-02-26T05:42:26;19.91;;;18.5;;
64018;SDS011;66942;52.138;5.216;2024-02-26T05:45:39;19.91;;;18.5;;
64018;SDS011;66942;52.138;5.216;2024-02-26T05:47:17;20.41;;;19.0;;
64018;SDS011;66942;52.138;5.216;2024-02-26T05:48:53;21.5;;;19.91;;
64018;SDS011;66942;52.138;5.216;2024-02-26T05:52:07;20.6;;;19.11;;
64018;SDS011;66942;52.138;5.216;2024-02-26T05:53:44;22.4;;;20.8;;
64018;SDS011;66942;52.138;5.216;2024-02-26T05:55:21;19.8;;;18.41;;
64018;SDS011;66942;52.138;5.216;2024-02-26T05:58:35;21.1;;;19.61;;
64018;SDS011;66942;52.138;5.216;2024-02-26T06:00:12;21.6;;;20.0;;
64018;SDS011;66942;52.138;5.216;2024-02-26T06:01:48;22.0;;;20.41;;
64018;SDS011;66942;52.138;5.216;2024-02-26T06:03:25;21.0;;;19.5;;
64018;SDS011;66942;52.138;5.216;2024-02-26T06:06:38;21.1;;;19.5;;
64018;SDS011;66942;52.138;5.216;2024-02-26T06:08:15;21.9;;;20.3;;
64018;SDS011;66942;52.138;5.216;2024-02-26T06:09:53;23.6;;;21.6;;
64018;SDS011;66942;52.138;5.216;2024-02-26T06:13:08;22.7;;;21.0;;
64018;SDS011;66942;52.138;5.216;2024-02-26T06:14:45;23.2;;;21.4;;
64018;SDS011;66942;52.138;5.216;2024-02-26T06:16:21;23.0;;;21.3;;
64018;SDS011;66942;52.138;5.216;2024-02-26T06:17:58;24.0;;;22.1;;
64018;SDS011;66942;52.138;5.216;2024-02-26T06:21:12;24.6;;;22.6;;
64018;SDS011;66942;52.138;5.216;2024-02-26T06:22:50;26.1;;;24.0;;
64018;SDS011;66942;52.138;5.216;2024-02-26T06:24:27;26.7;;;24.4;;
64018;SDS011;66942;52.138;5.216;2024-02-26T06:27:41;26.9;;;24.7;;
64018;SDS011;66942;52.138;5.216;2024-02-26T06:29:18;26.7;;;24.4;;
64018;SDS011;66942;52.138;5.216;2024-02-26T06:30:55;27.5;;;25.0;;
64018;SDS011;66942;52.138;5.216;2024-02-26T06:32:32;27.1;;;24.8;;
64018;SDS011;66942;52.138;5.216;2024-02-26T06:35:46;27.9;;;25.4;;
64018;SDS011;66942;52.138;5.216;2024-02-26T06:37:23;28.1;;;25.6;;
64018;SDS011;66942;52.138;5.216;2024-02-26T06:39:00;30.1;;;27.5;;
64018;SDS011;66942;52.138;5.216;2024-02-26T06:42:14;29.9;;;27.2;;
64018;SDS011;66942;52.138;5.216;2024-02-26T06:43:50;29.2;;;26.7;;
64018;SDS011;66942;52.138;5.216;2024-02-26T06:45:27;30.2;;;27.5;;
64018;SDS011;66942;52.138;5.216;2024-02-26T06:48:40;30.5;;;27.7;;
64018;SDS011;66942;52.138;5.216;2024-02-26T06:50:17;31.5;;;28.7;;
64018;SDS011;66942;52.138;5.216;2024-02-26T06:51:54;31.3;;;28.6;;
64018;SDS011;66942;52.138;5.216;2024-02-26T06:53:31;31.7;;;28.8;;
64018;SDS011;66942;52.138;5.216;2024-02-26T06:56:45;33.5;;;30.5;;
64018;SDS011;66942;52.138;5.216;2024-02-26T06:58:22;35.1;;;31.8;;
64018;SDS011;66942;52.138;5.216;2024-02-26T06:59:58;33.8;;;30.7;;
64018;SDS011;66942;52.138;5.216;2024-02-26T07:03:12;34.5;;;31.2;;
64018;SDS011;66942;52.138;5.216;2024-02-26T07:04:49;35.4;;;32.21;;
64018;SDS011;66942;52.138;5.216;2024-02-26T07:06:27;37.0;;;33.5;;
64018;SDS011;66942;52.138;5.216;2024-02-26T07:09:42;36.21;;;32.6;;
64018;SDS011;66942;52.138;5.216;2024-02-26T07:11:18;38.31;;;34.6;;
64018;SDS011;66942;52.138;5.216;2024-02-26T07:12:56;37.4;;;34.0;;
64018;SDS011;66942;52.138;5.216;2024-02-26T07:14:32;39.1;;;35.5;;
64018;SDS011;66942;52.138;5.216;2024-02-26T07:17:57;38.31;;;34.71;;
64018;SDS011;66942;52.138;5.216;2024-02-26T07:19:34;38.71;;;35.1;;
64018;SDS011;66942;52.138;5.216;2024-02-26T07:21:11;39.9;;;36.21;;
64018;SDS011;66942;52.138;5.216;2024-02-26T07:22:47;41.4;;;37.81;;
64018;SDS011;66942;52.138;5.216;2024-02-26T07:26:01;40.5;;;36.81;;
64018;SDS011;66942;52.138;5.216;2024-02-26T07:27:42;42.2;;;38.31;;
64018;SDS011;66942;52.138;5.216;2024-02-26T07:29:18;41.3;;;37.5;;
64018;SDS011;66942;52.138;5.216;2024-02-26T07:32:32;41.6;;;38.0;;
64018;SDS011;66942;52.138;5.216;2024-02-26T07:34:09;40.71;;;37.21;;
64018;SDS011;66942;52.138;5.216;2024-02-26T07:35:47;41.5;;;37.9;;
64018;SDS011;66942;52.138;5.216;2024-02-26T07:37:24;41.0;;;37.5;;
64018;SDS011;66942;52.138;5.216;2024-02-26T07:40:38;41.2;;;37.5;;
64018;SDS011;66942;52.138;5.216;2024-02-26T07:42:15;39.81;;;36.21;;
64018;SDS011;66942;52.138;5.216;2024-02-26T07:43:51;40.1;;;36.71;;
64018;SDS011;66942;52.138;5.216;2024-02-26T07:47:04;41.1;;;37.6;;
64018;SDS011;66942;52.138;5.216;2024-02-26T07:48:41;38.0;;;34.6;;
64018;SDS011;66942;52.138;5.216;2024-02-26T07:50:17;39.4;;;36.0;;
64018;SDS011;66942;52.138;5.216;2024-02-26T07:53:31;37.81;;;34.31;;
64018;SDS011;66942;52.138;5.216;2024-02-26T07:55:08;35.81;;;32.9;;
64018;SDS011;66942;52.138;5.216;2024-02-26T07:56:45;36.9;;;33.71;;
64018;SDS011;66942;52.138;5.216;2024-02-26T07:58:22;33.6;;;30.7;;
64018;SDS011;66942;52.138;5.216;2024-02-26T08:01:37;33.8;;;31.0;;
64018;SDS011;66942;52.138;5.216;2024-02-26T08:03:13;31.6;;;29.2;;
64018;SDS011;66942;52.138;5.216;2024-02-26T08:04:50;31.3;;;28.9;;
64018;SDS011;66942;52.138;5.216;2024-02-26T08:08:03;29.6;;;27.2;;
64018;SDS011;66942;52.138;5.216;2024-02-26T08:09:40;30.3;;;27.9;;
64018;SDS011;66942;52.138;5.216;2024-02-26T08:11:18;27.7;;;25.7;;
64018;SDS011;66942;52.138;5.216;2024-02-26T08:14:30;26.4;;;24.4;;
64018;SDS011;66942;52.138;5.216;2024-02-26T08:16:08;26.1;;;24.1;;
64018;SDS011;66942;52.138;5.216;2024-02-26T08:17:45;25.4;;;23.4;;
64018;SDS011;66942;52.138;5.216;2024-02-26T08:19:22;24.8;;;22.9;;
64018;SDS011;66942;52.138;5.216;2024-02-26T08:22:36;23.9;;;22.0;;
64018;SDS011;66942;52.138;5.216;2024-02-26T08:24:13;22.3;;;20.7;;
64018;SDS011;66942;52.138;5.216;2024-02-26T08:25:50;23.7;;;21.9;;
64018;SDS011;66942;52.138;5.216;2024-02-26T08:29:04;21.9;;;20.3;;
64018;SDS011;66942;52.138;5.216;2024-02-26T08:30:41;20.11;;;18.7;;
64018;SDS011;66942;52.138;5.216;2024-02-26T08:32:18;21.2;;;19.61;;
64018;SDS011;66942;52.138;5.216;2024-02-26T08:33:54;19.3;;;18.0;;
64018;SDS011;66942;52.138;5.216;2024-02-26T08:37:07;18.3;;;17.0;;
64018;SDS011;66942;52.138;5.216;2024-02-26T08:38:43;18.3;;;17.11;;
64018;SDS011;66942;52.138;5.216;2024-02-26T08:40:21;18.0;;;16.8;;
64018;SDS011;66942;52.138;5.216;2024-02-26T08:43:35;18.8;;;17.5;;
64018;SDS011;66942;52.138;5.216;2024-02-26T08:45:11;17.8;;;16.61;;
64018;SDS011;66942;52.138;5.216;2024-02-26T08:46:48;17.61;;;16.4;;
64018;SDS011;66942;52.138;5.216;2024-02-26T08:50:02;17.0;;;15.8;;
64018;SDS011;66942;52.138;5.216;2024-02-26T08:51:41;16.8;;;15.7;;
64018;SDS011;66942;52.138;5.216;2024-02-26T08:53:18;16.11;;;15.0;;
64018;SDS011;66942;52.138;5.216;2024-02-26T08:54:55;16.3;;;15.3;;
64018;SDS011;66942;52.138;5.216;2024-02-26T08:58:09;16.0;;;14.9;;
64018;SDS011;66942;52.138;5.216;2024-02-26T08:59:46;15.8;;;14.8;;
64018;SDS011;66942;52.138;5.216;2024-02-26T09:01:23;15.6;;;14.4;;
64018;SDS011;66942;52.138;5.216;2024-02-26T09:04:36;16.2;;;15.1;;
64018;SDS011;66942;52.138;5.216;2024-02-26T09:06:14;14.9;;;13.9;;
64018;SDS011;66942;52.138;5.216;2024-02-26T09:07:51;15.2;;;14.0;;
64018;SDS011;66942;52.138;5.216;2024-02-26T09:09:28;13.8;;;12.9;;
64018;SDS011;66942;52.138;5.216;2024-02-26T09:12:40;14.4;;;13.3;;
64018;SDS011;66942;52.138;5.216;2024-02-26T09:14:18;14.2;;;13.3;;
64018;SDS011;66942;52.138;5.216;2024-02-26T09:15:55;14.3;;;13.3;;
64018;SDS011;66942;52.138;5.216;2024-02-26T09:19:09;13.2;;;12.4;;
64018;SDS011;66942;52.138;5.216;2024-02-26T09:20:46;13.2;;;12.4;;
64018;SDS011;66942;52.138;5.216;2024-02-26T09:22:23;13.5;;;12.5;;
64018;SDS011;66942;52.138;5.216;2024-02-26T09:25:37;13.9;;;12.9;;
64018;SDS011;66942;52.138;5.216;2024-02-26T09:27:15;13.0;;;12.1;;
64018;SDS011;66942;52.138;5.216;2024-02-26T09:28:52;13.4;;;12.4;;
64018;SDS011;66942;52.138;5.216;2024-02-26T09:30:29;12.3;;;11.6;;
64018;SDS011;66942;52.138;5.216;2024-02-26T09:33:43;12.5;;;11.7;;
64018;SDS011;66942;52.138;5.216;2024-02-26T09:35:20;12.9;;;12.0;;
64018;SDS011;66942;52.138;5.216;2024-02-26T09:36:57;12.3;;;11.5;;
64018;SDS011;66942;52.138;5.216;2024-02-26T09:40:12;11.3;;;10.6;;
64018;SDS011;66942;52.138;5.216;2024-02-26T09:41:48;11.6;;;10.8;;
64018;SDS011;66942;52.138;5.216;2024-02-26T09:43:24;11.8;;;11.0;;
64018;SDS011;66942;52.138;5.216;2024-02-26T09:45:10;11.8;;;11.0;;
64018;SDS011;66942;52.138;5.216;2024-02-26T09:48:29;10.9;;;10.3;;
64018;SDS011;66942;52.138;5.216;2024-02-26T09:50:08;12.5;;;11.6;;
64018;SDS011;66942;52.138;5.216;2024-02-26T09:51:46;11.8;;;11.0;;
64018;SDS011;66942;52.138;5.216;2024-02-26T09:53:25;11.2;;;10.5;;
64018;SDS011;66942;52.138;5.216;2024-02-26T09:56:44;11.2;;;10.5;;
64018;SDS011;66942;52.138;5.216;2024-02-26T09:58:26;12.5;;;11.7;;
64018;SDS011;66942;52.138;5.216;2024-02-26T10:00:08;12.0;;;11.2;;
64018;SDS011;66942;52.138;5.216;2024-02-26T10:01:50;11.8;;;11.0;;
64018;SDS011;66942;52.138;5.216;2024-02-26T10:05:14;12.3;;;11.5;;
64018;SDS011;66942;52.138;5.216;2024-02-26T10:06:53;11.7;;;11.0;;
64018;SDS011;66942;52.138;5.216;2024-02-26T10:08:30;11.5;;;10.8;;
64018;SDS011;66942;52.138;5.216;2024-02-26T10:10:08;11.6;;;10.9;;
64018;SDS011;66942;52.138;5.216;2024-02-26T10:13:24;11.9;;;11.1;;
64018;SDS011;66942;52.138;5.216;2024-02-26T10:15:00;12.1;;;11.3;;
64018;SDS011;66942;52.138;5.216;2024-02-26T10:16:38;11.9;;;11.2;;
64018;SDS011;66942;52.138;5.216;2024-02-26T10:19:52;11.5;;;10.8;;
64018;SDS011;66942;52.138;5.216;2024-02-26T10:21:29;12.5;;;11.7;;
64018;SDS011;66942;52.138;5.216;2024-02-26T10:23:06;12.5;;;11.7;;
64018;SDS011;66942;52.138;5.216;2024-02-26T10:26:22;12.3;;;11.6;;
64018;SDS011;66942;52.138;5.216;2024-02-26T10:28:00;12.8;;;11.9;;
64018;SDS011;66942;52.138;5.216;2024-02-26T10:29:37;12.9;;;12.1;;
64018;SDS011;66942;52.138;5.216;2024-02-26T10:31:15;12.5;;;11.7;;
64018;SDS011;66942;52.138;5.216;2024-02-26T10:34:29;11.7;;;11.0;;
64018;SDS011;66942;52.138;5.216;2024-02-26T10:36:06;12.7;;;11.9;;
64018;SDS011;66942;52.138;5.216;2024-02-26T10:37:44;12.4;;;11.6;;
64018;SDS011;66942;52.138;5.216;2024-02-26T10:41:01;12.6;;;11.7;;
64018;SDS011;66942;52.138;5.216;2024-02-26T10:42:38;12.7;;;11.9;;
64018;SDS011;66942;52.138;5.216;2024-02-26T10:44:16;12.1;;;11.3;;
64018;SDS011;66942;52.138;5.216;2024-02-26T10:45:54;12.1;;;11.4;;
64018;SDS011;66942;52.138;5.216;2024-02-26T10:49:12;12.4;;;11.6;;
64018;SDS011;66942;52.138;5.216;2024-02-26T10:50:53;12.3;;;11.6;;
64018;SDS011;66942;52.138;5.216;2024-02-26T10:52:30;12.4;;;11.6;;
64018;SDS011;66942;52.138;5.216;2024-02-26T10:54:08;12.8;;;12.0;;
64018;SDS011;66942;52.138;5.216;2024-02-26T10:57:33;12.4;;;11.6;;
64018;SDS011;66942;52.138;5.216;2024-02-26T10:59:12;12.4;;;11.7;;
64018;SDS011;66942;52.138;5.216;2024-02-26T11:00:50;12.5;;;11.7;;
64018;SDS011;66942;52.138;5.216;2024-02-26T11:02:28;13.4;;;12.6;;
64018;SDS011;66942;52.138;5.216;2024-02-26T11:05:45;14.1;;;13.2;;
64018;SDS011;66942;52.138;5.216;2024-02-26T11:07:23;13.4;;;12.6;;
64018;SDS011;66942;52.138;5.216;2024-02-26T11:09:02;12.6;;;11.9;;
64018;SDS011;66942;52.138;5.216;2024-02-26T11:12:19;13.8;;;13.0;;
64018;SDS011;66942;52.138;5.216;2024-02-26T11:14:02;12.6;;;11.8;;
64018;SDS011;66942;52.138;5.216;2024-02-26T11:15:39;13.1;;;12.3;;
64018;SDS011;66942;52.138;5.216;2024-02-26T11:17:16;13.5;;;12.7;;
64018;SDS011;66942;52.138;5.216;2024-02-26T11:20:33;12.7;;;12.0;;
64018;SDS011;66942;52.138;5.216;2024-02-26T11:22:13;12.9;;;12.2;;
64018;SDS011;66942;52.138;5.216;2024-02-26T11:23:51;13.7;;;12.9;;
64018;SDS011;66942;52.138;5.216;2024-02-26T11:25:28;13.2;;;12.5;;
64018;SDS011;66942;52.138;5.216;2024-02-26T11:28:43;14.1;;;13.2;;
64018;SDS011;66942;52.138;5.216;2024-02-26T11:30:21;12.9;;;12.1;;
64018;SDS011;66942;52.138;5.216;2024-02-26T11:31:59;14.1;;;13.3;;
64018;SDS011;66942;52.138;5.216;2024-02-26T11:35:14;13.4;;;12.6;;
64018;SDS011;66942;52.138;5.216;2024-02-26T11:36:52;13.6;;;12.8;;
64018;SDS011;66942;52.138;5.216;2024-02-26T11:38:30;13.3;;;12.5;;
64018;SDS011;66942;52.138;5.216;2024-02-26T11:40:10;13.1;;;12.4;;
64018;SDS011;66942;52.138;5.216;2024-02-26T11:43:49;13.1;;;12.4;;
64018;SDS011;66942;52.138;5.216;2024-02-26T11:45:47;12.5;;;11.8;;
64018;SDS011;66942;52.138;5.216;2024-02-26T11:47:40;13.3;;;12.5;;
64018;SDS011;66942;52.138;5.216;2024-02-26T11:49:35;13.3;;;12.6;;
64018;SDS011;66942;52.138;5.216;2024-02-26T11:51:12;13.2;;;12.5;;
64018;SDS011;66942;52.138;5.216;2024-02-26T11:53:18;12.6;;;11.8;;
64018;SDS011;66942;52.138;5.216;2024-02-26T11:54:56;12.7;;;12.0;;
64018;SDS011;66942;52.138;5.216;2024-02-26T11:58:10;12.9;;;12.2;;
64018;SDS011;66942;52.138;5.216;2024-02-26T11:59:47;13.2;;;12.5;;
64018;SDS011;66942;52.138;5.216;2024-02-26T12:01:36;12.2;;;11.5;;
64018;SDS011;66942;52.138;5.216;2024-02-26T12:03:16;12.6;;;11.9;;
64018;SDS011;66942;52.138;5.216;2024-02-26T12:06:30;12.8;;;12.1;;
64018;SDS011;66942;52.138;5.216;2024-02-26T12:08:07;12.3;;;11.6;;
64018;SDS011;66942;52.138;5.216;2024-02-26T12:09:44;11.7;;;10.9;;
64018;SDS011;66942;52.138;5.216;2024-02-26T12:12:59;12.3;;;11.6;;
64018;SDS011;66942;52.138;5.216;2024-02-26T12:14:37;11.9;;;11.3;;
64018;SDS011;66942;52.138;5.216;2024-02-26T12:16:21;12.3;;;11.5;;
64018;SDS011;66942;52.138;5.216;2024-02-26T12:18:15;11.6;;;10.9;;
64018;SDS011;66942;52.138;5.216;2024-02-26T12:19:54;11.5;;;10.9;;
64018;SDS011;66942;52.138;5.216;2024-02-26T12:23:20;11.6;;;11.0;;
64018;SDS011;66942;52.138;5.216;2024-02-26T12:24:58;11.7;;;11.0;;
64018;SDS011;66942;52.138;5.216;2024-02-26T12:26:36;11.2;;;10.7;;
64018;SDS011;66942;52.138;5.216;2024-02-26T12:28:13;11.3;;;10.7;;
64018;SDS011;66942;52.138;5.216;2024-02-26T12:31:29;11.3;;;10.7;;
64018;SDS011;66942;52.138;5.216;2024-02-26T12:33:06;11.2;;;10.6;;
64018;SDS011;66942;52.138;5.216;2024-02-26T12:34:43;10.6;;;10.0;;
64018;SDS011;66942;52.138;5.216;2024-02-26T12:37:58;11.1;;;10.5;;
64018;SDS011;66942;52.138;5.216;2024-02-26T12:39:36;10.9;;;10.4;;